Time;durP1;ratioP1;P1;durP2;ratioP2;P2;SDS_P1;SDS_P2;PMS_P1;PMS_P2;Temp;Humidity;BMP_temperature;BMP_pressure;BME280_temperature;BME280_humidity;BME280_pressure;Samples;Min_cycle;Max_cycle;Signal;HPM_P1;HPM_P2
2021/11/07 00:02:16;;;;;;;;;;;10.70;99.90;;;;;;5029453;28;19968;-74
2021/11/07 00:04:45;;;;;;;;;;;10.70;99.90;;;;;;5035065;28;19913;-75
2021/11/07 00:07:20;;;;;;;;;;;10.70;99.90;;;;;;5059658;28;19917;-74
2021/11/07 00:10:05;;;;;;;;;;;10.70;99.90;;;;;;5033579;28;19942;-74
2021/11/07 00:12:37;;;;;;;;;;;10.70;99.90;;;;;;5035349;28;20268;-73
2021/11/07 00:15:03;;;;;;;;;;;10.70;99.90;;;;;;5034666;28;19913;-74
2021/11/07 00:17:31;;;;;;;;;;;10.70;99.90;;;;;;5059676;28;19975;-74
2021/11/07 00:23:24;;;;;;;;;;;10.80;99.90;;;;;;5029634;28;19963;-74
2021/11/07 00:26:26;;;;;;;;;;;10.80;99.90;;;;;;5033251;28;19913;-74
2021/11/07 00:31:11;;;;;;;;;;;10.80;99.90;;;;;;5032772;28;19940;-75
2021/11/07 00:49:21;;;;;;;;;;;10.90;99.90;;;;;;5031033;28;19921;-75
2021/11/07 00:54:15;;;;;;;;;;;10.90;99.90;;;;;;5031994;28;19920;-74
2021/11/07 00:56:55;;;;;;;;;;;10.90;99.90;;;;;;5032333;28;20604;-75
2021/11/07 01:01:53;;;;;;;;;;;10.90;99.90;;;;;;5031246;28;19913;-74
2021/11/07 01:04:19;;;;;;;;;;;10.90;99.90;;;;;;5031283;28;19913;-74
2021/11/07 01:06:45;;;;;;;;;;;10.90;99.90;;;;;;5038089;28;19924;-74
2021/11/07 01:09:11;;;;;;;;;;;11.00;99.90;;;;;;5040290;28;19928;-74
2021/11/07 01:11:36;;;;;;;;;;;11.00;99.90;;;;;;5032735;28;19921;-74
2021/11/07 01:14:02;;;;;;;;;;;11.00;99.90;;;;;;5031422;28;19917;-74
2021/11/07 01:16:28;;;;;;;;;;;11.10;99.90;;;;;;5032914;28;19921;-74
2021/11/07 01:18:54;;;;;;;;;;;11.20;99.90;;;;;;5032067;28;19967;-72
2021/11/07 01:21:19;;;;;;;;;;;11.30;99.90;;;;;;5034171;28;19920;-72
2021/11/07 01:24:02;;;;;;;;;;;11.30;99.90;;;;;;5031017;28;19921;-74
2021/11/07 01:26:36;;;;;;;;;;;11.30;99.90;;;;;;5032636;28;19913;-73
2021/11/07 01:29:20;;;;;;;;;;;11.40;99.90;;;;;;5030514;28;19917;-74
2021/11/07 01:31:47;;;;;;;;;;;11.40;99.90;;;;;;5034365;28;20477;-73
2021/11/07 01:34:21;;;;;;;;;;;11.40;99.90;;;;;;5031890;28;19913;-73
2021/11/07 01:36:55;;;;;;;;;;;11.50;99.90;;;;;;5031395;28;19917;-73
2021/11/07 01:39:35;;;;;;;;;;;11.50;99.90;;;;;;5032022;28;20034;-74
2021/11/07 01:42:53;;;;;;;;;;;11.50;99.90;;;;;;5031111;28;19932;-73
2021/11/07 01:44:56;;;;;;;;;;;11.50;99.90;;;;;;5028989;28;19927;-73
2021/11/07 01:47:23;;;;;;;;;;;11.50;99.90;;;;;;5032475;28;20008;-74
2021/11/07 01:49:49;;;;;;;;;;;11.60;99.90;;;;;;5033617;28;20363;-74
2021/11/07 01:52:15;;;;;;;;;;;11.60;99.90;;;;;;5030673;28;19917;-74
2021/11/07 01:57:23;;;;;;;;;;;11.60;99.90;;;;;;5032454;28;19967;-74
2021/11/07 01:59:50;;;;;;;;;;;11.60;99.90;;;;;;5029671;28;19913;-74
2021/11/07 02:02:17;;;;;;;;;;;11.60;99.90;;;;;;5031644;28;19932;-74
2021/11/07 02:04:43;;;;;;;;;;;11.60;99.90;;;;;;5031976;28;19959;-75
2021/11/07 02:07:09;;;;;;;;;;;11.60;99.90;;;;;;5028653;28;19917;-74
2021/11/07 02:09:35;;;;;;;;;;;11.60;99.90;;;;;;5032194;28;20016;-74
2021/11/07 02:12:01;;;;;;;;;;;11.70;99.90;;;;;;5031601;28;20019;-75
2021/11/07 02:14:26;;;;;;;;;;;11.60;99.90;;;;;;5045849;28;19921;-75
2021/11/07 02:16:52;;;;;;;;;;;11.60;99.90;;;;;;5031739;28;19928;-76
2021/11/07 02:19:18;;;;;;;;;;;11.50;99.90;;;;;;5031114;28;19966;-74
2021/11/07 02:21:45;;;;;;;;;;;11.50;99.90;;;;;;5029856;28;20374;-76
2021/11/07 02:24:15;;;;;;;;;;;11.50;99.90;;;;;;5033427;28;19967;-76
2021/11/07 02:26:41;;;;;;;;;;;11.40;99.90;;;;;;5031932;28;19913;-75
2021/11/07 02:29:07;;;;;;;;;;;11.40;99.90;;;;;;5057654;28;19961;-76
2021/11/07 02:31:33;;;;;;;;;;;11.30;99.90;;;;;;5032197;28;19963;-74
2021/11/07 02:33:58;;;;;;;;;;;11.30;99.90;;;;;;5032467;28;19948;-74
2021/11/07 02:36:24;;;;;;;;;;;11.20;99.90;;;;;;5028860;28;19959;-74
2021/11/07 02:38:49;;;;;;;;;;;11.20;99.90;;;;;;5029957;28;19999;-76
2021/11/07 02:41:16;;;;;;;;;;;11.20;99.90;;;;;;5032148;28;20320;-76
2021/11/07 02:43:47;;;;;;;;;;;11.20;99.90;;;;;;5032499;28;19921;-74
2021/11/07 02:46:16;;;;;;;;;;;11.10;99.90;;;;;;5031195;28;19941;-74
2021/11/07 02:48:43;;;;;;;;;;;11.10;99.90;;;;;;5029544;28;19914;-73
2021/11/07 02:51:09;;;;;;;;;;;11.00;99.90;;;;;;5032297;28;19936;-75
2021/11/07 02:53:35;;;;;;;;;;;11.00;99.90;;;;;;5033309;28;20311;-75
2021/11/07 02:56:00;;;;;;;;;;;11.00;99.90;;;;;;5032964;28;19917;-73
2021/11/07 02:58:26;;;;;;;;;;;11.00;99.90;;;;;;5029877;28;19913;-73
2021/11/07 03:00:52;;;;;;;;;;;10.90;99.90;;;;;;5031441;28;19928;-74
2021/11/07 03:03:18;;;;;;;;;;;10.90;99.90;;;;;;5031837;28;19951;-74
2021/11/07 03:05:44;;;;;;;;;;;10.90;99.90;;;;;;5029246;28;19913;-74
2021/11/07 03:08:10;;;;;;;;;;;10.90;99.90;;;;;;5031718;28;19984;-74
2021/11/07 03:10:35;;;;;;;;;;;10.90;99.90;;;;;;5030218;28;20331;-74
2021/11/07 03:13:06;;;;;;;;;;;10.90;99.90;;;;;;5029981;28;19921;-74
2021/11/07 03:15:33;;;;;;;;;;;10.90;99.90;;;;;;5029828;28;19959;-74
2021/11/07 03:17:59;;;;;;;;;;;10.90;99.90;;;;;;5030854;28;20307;-74
2021/11/07 03:20:24;;;;;;;;;;;10.90;99.90;;;;;;5033436;28;19917;-76
2021/11/07 03:22:50;;;;;;;;;;;10.90;99.90;;;;;;5035205;28;20323;-74
2021/11/07 03:25:16;;;;;;;;;;;10.80;99.90;;;;;;5036197;28;19921;-74
2021/11/07 03:27:44;;;;;;;;;;;10.80;99.90;;;;;;5035596;28;20312;-74
2021/11/07 03:30:25;;;;;;;;;;;10.70;99.90;;;;;;5034674;28;19948;-74
2021/11/07 03:32:54;;;;;;;;;;;10.70;99.90;;;;;;5033921;28;19917;-74
2021/11/07 03:35:19;;;;;;;;;;;10.70;99.90;;;;;;5034283;28;20264;-74
2021/11/07 03:37:55;;;;;;;;;;;10.70;99.90;;;;;;5035079;28;19921;-74
2021/11/07 03:40:22;;;;;;;;;;;10.60;99.90;;;;;;5034442;28;19920;-75
2021/11/07 03:42:48;;;;;;;;;;;10.60;99.90;;;;;;5033899;28;19928;-75
2021/11/07 03:45:13;;;;;;;;;;;10.60;99.90;;;;;;5041572;28;19921;-75
2021/11/07 03:47:39;;;;;;;;;;;10.60;99.90;;;;;;5062531;28;20356;-75
2021/11/07 03:50:07;;;;;;;;;;;10.60;99.90;;;;;;5062824;28;19937;-75
2021/11/07 03:52:32;;;;;;;;;;;10.50;99.90;;;;;;5032310;28;20221;-75
2021/11/07 03:54:58;;;;;;;;;;;10.50;99.90;;;;;;5035550;28;19917;-75
2021/11/07 03:57:23;;;;;;;;;;;10.50;99.90;;;;;;5033372;28;20236;-75
2021/11/07 03:59:49;;;;;;;;;;;10.40;99.90;;;;;;5033523;28;20012;-74
2021/11/07 04:02:15;;;;;;;;;;;10.40;99.90;;;;;;5035502;28;21199;-74
2021/11/07 04:04:41;;;;;;;;;;;10.30;99.90;;;;;;5034704;28;19917;-76
2021/11/07 04:07:07;;;;;;;;;;;10.30;99.90;;;;;;5040931;28;19929;-74
2021/11/07 04:09:33;;;;;;;;;;;10.30;99.90;;;;;;5033234;28;19913;-76
2021/11/07 04:11:59;;;;;;;;;;;10.30;99.90;;;;;;5035853;28;20414;-75
2021/11/07 04:14:25;;;;;;;;;;;10.30;99.90;;;;;;5063888;28;19971;-75
2021/11/07 04:16:51;;;;;;;;;;;10.20;99.90;;;;;;5035971;28;19917;-74
2021/11/07 04:19:16;;;;;;;;;;;10.30;99.90;;;;;;5035113;28;19924;-75
2021/11/07 04:21:47;;;;;;;;;;;10.20;99.90;;;;;;5034076;28;19920;-74
2021/11/07 04:24:12;;;;;;;;;;;10.20;99.90;;;;;;5033397;28;19924;-75
2021/11/07 04:26:38;;;;;;;;;;;10.20;99.90;;;;;;5035691;28;19925;-75
2021/11/07 04:29:04;;;;;;;;;;;10.20;99.90;;;;;;5032969;28;19913;-75
2021/11/07 04:31:31;;;;;;;;;;;10.20;99.90;;;;;;5034960;28;19928;-75
2021/11/07 04:33:56;;;;;;;;;;;10.30;99.90;;;;;;5031173;28;19976;-75
2021/11/07 04:36:22;;;;;;;;;;;10.40;99.90;;;;;;5034091;28;19921;-75
2021/11/07 04:38:48;;;;;;;;;;;10.40;99.90;;;;;;5033503;28;19990;-76
2021/11/07 04:41:21;;;;;;;;;;;10.40;99.90;;;;;;5038855;28;19983;-75
2021/11/07 04:43:47;;;;;;;;;;;10.40;99.90;;;;;;5032843;28;19929;-76
2021/11/07 04:46:14;;;;;;;;;;;10.30;99.90;;;;;;5033468;28;19913;-78
2021/11/07 04:48:41;;;;;;;;;;;10.30;99.90;;;;;;5031165;28;19919;-77
2021/11/07 04:51:06;;;;;;;;;;;10.20;99.90;;;;;;5060679;28;19928;-78
2021/11/07 04:53:32;;;;;;;;;;;10.20;99.90;;;;;;5031618;28;20011;-78
2021/11/07 04:55:57;;;;;;;;;;;10.20;99.90;;;;;;5034254;28;20247;-76
2021/11/07 04:58:23;;;;;;;;;;;10.10;99.90;;;;;;5049057;28;19917;-75
2021/11/07 05:00:48;;;;;;;;;;;10.10;99.90;;;;;;5033529;28;19913;-76
2021/11/07 05:03:14;;;;;;;;;;;10.10;99.90;;;;;;5031346;28;19917;-75
2021/11/07 05:05:40;;;;;;;;;;;10.00;99.90;;;;;;5029286;28;19921;-75
2021/11/07 05:08:06;;;;;;;;;;;10.00;99.90;;;;;;5039652;28;20047;-76
2021/11/07 05:10:32;;;;;;;;;;;10.00;99.90;;;;;;5034464;28;19917;-74
2021/11/07 05:12:58;;;;;;;;;;;10.00;99.90;;;;;;5032451;28;19917;-75
2021/11/07 05:15:23;;;;;;;;;;;10.00;99.90;;;;;;5034226;28;19921;-77
2021/11/07 05:17:49;;;;;;;;;;;9.90;99.90;;;;;;5038444;28;19951;-75
2021/11/07 05:20:14;;;;;;;;;;;10.00;99.90;;;;;;5031496;28;20000;-75
2021/11/07 05:22:40;;;;;;;;;;;10.00;99.90;;;;;;5033931;28;19928;-75
2021/11/07 05:25:07;;;;;;;;;;;10.00;99.90;;;;;;5032559;28;19963;-74
2021/11/07 05:27:33;;;;;;;;;;;10.00;99.90;;;;;;5033717;28;19913;-76
2021/11/07 05:29:59;;;;;;;;;;;10.10;99.90;;;;;;5032003;28;19913;-76
2021/11/07 05:32:25;;;;;;;;;;;10.10;99.90;;;;;;5029649;28;19921;-75
2021/11/07 05:34:50;;;;;;;;;;;10.10;99.90;;;;;;5046611;28;20313;-76
2021/11/07 05:37:16;;;;;;;;;;;10.10;99.90;;;;;;5049245;28;19924;-75
2021/11/07 05:39:41;;;;;;;;;;;10.10;99.90;;;;;;5033388;28;20587;-76
2021/11/07 05:42:09;;;;;;;;;;;10.10;99.90;;;;;;5058394;28;19917;-77
2021/11/07 05:44:34;;;;;;;;;;;10.00;99.90;;;;;;5031937;28;19913;-76
2021/11/07 05:47:00;;;;;;;;;;;10.00;99.90;;;;;;5031393;28;19924;-77
2021/11/07 05:49:26;;;;;;;;;;;10.00;99.90;;;;;;5030731;28;19939;-77
2021/11/07 05:51:51;;;;;;;;;;;10.00;99.90;;;;;;5033433;28;20008;-75
2021/11/07 05:54:17;;;;;;;;;;;10.00;99.90;;;;;;5032694;28;19921;-77
2021/11/07 05:56:42;;;;;;;;;;;10.00;99.90;;;;;;5062270;28;19917;-75
2021/11/07 05:59:08;;;;;;;;;;;10.00;99.90;;;;;;5032552;28;19913;-75
2021/11/07 06:01:35;;;;;;;;;;;10.00;99.90;;;;;;5033498;28;19913;-77
2021/11/07 06:04:02;;;;;;;;;;;9.90;99.90;;;;;;5032629;28;19917;-76
2021/11/07 06:06:28;;;;;;;;;;;9.90;99.90;;;;;;5032014;28;19979;-76
2021/11/07 06:08:53;;;;;;;;;;;9.90;99.90;;;;;;5038815;28;19913;-78
2021/11/07 06:11:20;;;;;;;;;;;9.90;99.90;;;;;;5033501;28;20292;-76
2021/11/07 06:13:46;;;;;;;;;;;9.90;99.90;;;;;;5029968;28;19924;-77
2021/11/07 06:16:11;;;;;;;;;;;9.80;99.90;;;;;;5034104;28;20270;-76
2021/11/07 06:18:37;;;;;;;;;;;9.80;99.90;;;;;;5059373;28;19921;-75
2021/11/07 06:21:03;;;;;;;;;;;9.80;99.90;;;;;;5031127;28;20000;-75
2021/11/07 06:23:28;;;;;;;;;;;9.80;99.90;;;;;;5032362;28;19921;-76
2021/11/07 06:25:54;;;;;;;;;;;9.80;99.90;;;;;;5032396;28;19936;-74
2021/11/07 06:28:21;;;;;;;;;;;9.80;99.90;;;;;;5031459;28;19921;-74
2021/11/07 06:30:50;;;;;;;;;;;9.80;99.90;;;;;;5030982;28;20220;-74
2021/11/07 06:33:16;;;;;;;;;;;9.80;99.90;;;;;;5028782;28;19913;-74
2021/11/07 06:35:42;;;;;;;;;;;9.80;99.90;;;;;;5033297;28;19920;-75
2021/11/07 06:38:08;;;;;;;;;;;9.80;99.90;;;;;;5032066;28;20254;-74
2021/11/07 06:40:34;;;;;;;;;;;9.70;99.90;;;;;;5033233;28;19920;-75
2021/11/07 06:43:00;;;;;;;;;;;9.70;99.90;;;;;;5031836;28;19928;-74
2021/11/07 06:45:26;;;;;;;;;;;9.70;99.90;;;;;;5032209;28;19921;-74
2021/11/07 06:47:52;;;;;;;;;;;9.70;99.90;;;;;;5030414;28;20377;-75
2021/11/07 06:50:17;;;;;;;;;;;9.70;99.90;;;;;;5032339;28;19936;-74
2021/11/07 06:52:44;;;;;;;;;;;9.70;99.90;;;;;;5029227;28;19921;-74
2021/11/07 06:55:10;;;;;;;;;;;9.70;99.90;;;;;;5035852;28;19963;-75
2021/11/07 06:57:36;;;;;;;;;;;9.80;99.90;;;;;;5036266;28;19921;-75
2021/11/07 07:00:04;;;;;;;;;;;9.80;99.90;;;;;;5036017;28;19913;-74
2021/11/07 07:02:29;;;;;;;;;;;9.80;99.90;;;;;;5034675;28;19967;-74
2021/11/07 07:04:55;;;;;;;;;;;9.80;99.90;;;;;;5036507;28;19925;-74
2021/11/07 07:07:21;;;;;;;;;;;9.80;99.90;;;;;;5034050;28;19952;-75
2021/11/07 07:09:50;;;;;;;;;;;9.80;99.90;;;;;;5036028;28;19917;-75
2021/11/07 07:12:32;;;;;;;;;;;9.80;99.90;;;;;;5041599;28;19964;-76
2021/11/07 07:15:08;;;;;;;;;;;9.80;99.90;;;;;;5035845;28;20351;-75
2021/11/07 07:28:05;;;;;;;;;;;9.90;99.90;;;;;;5034589;28;19920;-75
2021/11/07 07:35:45;;;;;;;;;;;10.00;99.90;;;;;;5035373;28;19959;-83
2021/11/07 07:38:11;;;;;;;;;;;9.90;99.90;;;;;;5034920;28;19961;-79
2021/11/07 07:40:36;;;;;;;;;;;9.90;99.90;;;;;;5034214;28;19955;-75
2021/11/07 07:43:02;;;;;;;;;;;9.90;99.90;;;;;;5035613;28;20002;-74
2021/11/07 07:45:29;;;;;;;;;;;9.90;99.90;;;;;;5035189;28;19920;-76
2021/11/07 07:47:55;;;;;;;;;;;10.00;99.90;;;;;;5035168;28;19970;-75
2021/11/07 07:50:23;;;;;;;;;;;10.00;99.90;;;;;;5035336;28;19914;-75
2021/11/07 07:52:48;;;;;;;;;;;10.10;99.90;;;;;;5033736;28;20224;-76
2021/11/07 07:55:16;;;;;;;;;;;10.00;99.90;;;;;;5033178;28;19920;-75
2021/11/07 07:57:42;;;;;;;;;;;10.10;99.90;;;;;;5033447;28;20293;-75
2021/11/07 08:00:09;;;;;;;;;;;10.20;99.90;;;;;;5035187;28;20251;-75
2021/11/07 08:02:35;;;;;;;;;;;10.20;99.90;;;;;;5033780;28;19925;-76
2021/11/07 08:05:01;;;;;;;;;;;10.30;99.90;;;;;;5031798;28;19917;-75
2021/11/07 08:07:27;;;;;;;;;;;10.30;99.90;;;;;;5034102;28;19952;-75
2021/11/07 08:09:55;;;;;;;;;;;10.40;99.90;;;;;;5034906;28;20047;-75
2021/11/07 08:12:21;;;;;;;;;;;10.40;99.90;;;;;;5034886;28;19917;-75
2021/11/07 08:14:47;;;;;;;;;;;10.50;99.90;;;;;;5035252;28;19924;-75
2021/11/07 08:17:13;;;;;;;;;;;10.60;99.90;;;;;;5060391;28;19921;-75
2021/11/07 08:19:39;;;;;;;;;;;10.60;99.90;;;;;;5035711;28;20232;-75
2021/11/07 08:22:05;;;;;;;;;;;10.60;99.90;;;;;;5035042;28;20009;-75
2021/11/07 08:24:31;;;;;;;;;;;10.50;99.90;;;;;;5041224;28;19916;-76
2021/11/07 08:26:57;;;;;;;;;;;10.50;99.90;;;;;;5034272;28;20216;-76
2021/11/07 08:29:23;;;;;;;;;;;10.50;99.90;;;;;;5031728;28;19928;-75
2021/11/07 08:31:51;;;;;;;;;;;10.50;99.90;;;;;;5036793;28;19949;-75
2021/11/07 08:34:19;;;;;;;;;;;10.50;99.90;;;;;;5050948;28;19949;-75
2021/11/07 08:37:30;;;;;;;;;;;10.60;99.90;;;;;;5060832;28;19920;-76
2021/11/07 08:42:02;;;;;;;;;;;10.90;99.90;;;;;;5036010;28;20004;-76
2021/11/07 09:01:00;;;;;;;;;;;11.20;99.90;;;;;;5034913;28;19932;-76
2021/11/07 09:08:40;;;;;;;;;;;11.20;99.90;;;;;;5031539;28;19909;-75
2021/11/07 09:11:06;;;;;;;;;;;11.30;99.90;;;;;;5060830;28;19980;-73
2021/11/07 09:13:32;;;;;;;;;;;11.30;99.90;;;;;;5032084;28;19909;-74
2021/11/07 09:15:59;;;;;;;;;;;11.40;99.90;;;;;;5031957;28;20205;-73
2021/11/07 09:18:25;;;;;;;;;;;11.30;99.90;;;;;;5031630;28;20004;-74
2021/11/07 09:23:33;;;;;;;;;;;10.80;99.90;;;;;;5032633;28;19983;-73
2021/11/07 09:28:35;;;;;;;;;;;10.70;99.90;;;;;;5034060;28;19916;-74
2021/11/07 09:31:14;;;;;;;;;;;10.70;99.90;;;;;;5031815;28;19928;-74
2021/11/07 09:36:23;;;;;;;;;;;10.90;99.90;;;;;;5034117;28;19923;-73
2021/11/07 09:42:25;;;;;;;;;;;11.10;99.90;;;;;;5092227;28;19957;-74
2021/11/07 09:44:19;;;;;;;;;;;11.20;99.90;;;;;;5083874;28;20324;-75
2021/11/07 09:46:49;;;;;;;;;;;11.30;99.90;;;;;;5088737;28;19924;-74
2021/11/07 09:51:44;;;;;;;;;;;11.40;99.90;;;;;;5087189;28;20039;-73
2021/11/07 09:54:12;;;;;;;;;;;11.50;99.90;;;;;;5089500;28;20303;-73
2021/11/07 09:56:44;;;;;;;;;;;11.50;99.90;;;;;;5088062;28;19916;-77
2021/11/07 09:59:09;;;;;;;;;;;11.50;99.90;;;;;;5087165;28;19916;-73
2021/11/07 10:01:36;;;;;;;;;;;11.70;99.90;;;;;;5089936;28;20016;-74
2021/11/07 10:04:03;;;;;;;;;;;11.80;99.90;;;;;;5087140;28;19917;-74
2021/11/07 10:06:33;;;;;;;;;;;11.90;99.90;;;;;;5081661;28;20277;-74
2021/11/07 10:08:59;;;;;;;;;;;11.90;99.90;;;;;;5088387;28;20318;-74
2021/11/07 10:11:31;;;;;;;;;;;11.80;99.90;;;;;;5090136;28;19919;-74
2021/11/07 10:14:16;;;;;;;;;;;11.80;99.90;;;;;;5090645;28;19917;-75
2021/11/07 10:16:45;;;;;;;;;;;11.70;99.90;;;;;;5090024;28;19921;-75
2021/11/07 10:19:28;;;;;;;;;;;11.70;99.90;;;;;;5092954;28;20188;-75
2021/11/07 10:21:54;;;;;;;;;;;11.70;99.90;;;;;;5091626;28;20023;-76
2021/11/07 10:24:24;;;;;;;;;;;11.60;99.90;;;;;;5092848;28;19920;-75
2021/11/07 10:26:55;;;;;;;;;;;11.50;99.90;;;;;;5100573;28;20307;-74
2021/11/07 10:29:33;;;;;;;;;;;11.40;99.90;;;;;;5088594;28;19920;-74
2021/11/07 10:32:04;;;;;;;;;;;11.20;99.90;;;;;;5083376;28;19920;-73
2021/11/07 10:40:07;;;;;;;;;;;10.80;99.90;;;;;;5088973;28;20322;-73
2021/11/07 10:45:39;;;;;;;;;;;10.60;99.90;;;;;;5086159;28;20423;-75
2021/11/07 10:53:43;;;;;;;;;;;10.50;99.90;;;;;;5075778;28;19928;-73
2021/11/07 10:56:10;;;;;;;;;;;10.60;99.90;;;;;;5075347;28;20223;-73
2021/11/07 10:58:47;;;;;;;;;;;10.80;99.90;;;;;;5077924;28;19951;-73
2021/11/07 11:01:24;;;;;;;;;;;11.00;99.90;;;;;;5077500;28;19928;-73
2021/11/07 11:03:58;;;;;;;;;;;11.30;99.90;;;;;;5071865;28;20299;-73
2021/11/07 11:06:24;;;;;;;;;;;11.40;99.90;;;;;;5077868;28;19912;-73
2021/11/07 11:08:54;;;;;;;;;;;11.40;99.90;;;;;;5075520;28;19913;-75
2021/11/07 11:24:08;;;;;;;;;;;10.80;99.90;;;;;;5074702;28;20003;-74
2021/11/07 11:29:20;;;;;;;;;;;11.20;99.90;;;;;;5073620;28;19912;-74
2021/11/07 11:32:16;;;;;;;;;;;11.40;99.90;;;;;;5071252;28;19912;-76
2021/11/07 11:34:38;;;;;;;;;;;11.60;99.90;;;;;;5075399;28;20015;-75
2021/11/07 11:37:27;;;;;;;;;;;11.50;99.90;;;;;;5073279;28;19920;-76
2021/11/07 11:40:07;;;;;;;;;;;11.10;99.90;;;;;;5078308;28;19965;-75
2021/11/07 11:42:39;;;;;;;;;;;10.40;99.90;;;;;;5075674;28;19913;-73
2021/11/07 11:45:05;;;;;;;;;;;10.00;99.90;;;;;;5077111;28;20257;-74
2021/11/07 11:48:09;;;;;;;;;;;10.00;99.90;;;;;;5068843;28;19931;-74
2021/11/07 11:50:37;;;;;;;;;;;10.10;99.90;;;;;;5068566;28;19919;-74
2021/11/07 11:53:17;;;;;;;;;;;10.20;99.90;;;;;;5074204;28;19912;-74
2021/11/07 12:04:25;;;;;;;;;;;10.50;99.90;;;;;;5031572;28;20282;-73
2021/11/07 12:06:53;;;;;;;;;;;10.50;99.90;;;;;;5030873;28;19917;-74
2021/11/07 12:09:29;;;;;;;;;;;10.40;99.90;;;;;;5029511;28;19913;-74
2021/11/07 12:12:47;;;;;;;;;;;10.40;99.90;;;;;;5031933;28;19921;-74
2021/11/07 12:15:27;;;;;;;;;;;10.30;99.90;;;;;;5023229;28;19951;-74
2021/11/07 12:18:04;;;;;;;;;;;10.30;99.90;;;;;;5012205;28;20373;-75
2021/11/07 12:20:32;;;;;;;;;;;10.30;99.90;;;;;;5019725;28;19999;-75
2021/11/07 12:23:13;;;;;;;;;;;10.30;99.90;;;;;;4999645;28;20308;-75
2021/11/07 12:25:38;;;;;;;;;;;10.20;99.90;;;;;;4992545;28;20035;-74
2021/11/07 12:28:04;;;;;;;;;;;10.30;99.90;;;;;;4959640;28;19940;-82
2021/11/07 12:30:30;;;;;;;;;;;10.40;99.90;;;;;;5012544;28;19921;-74
2021/11/07 12:33:08;;;;;;;;;;;10.40;99.90;;;;;;5028114;28;19921;-74
2021/11/07 12:41:21;;;;;;;;;;;10.40;99.90;;;;;;5072595;28;19973;-77
2021/11/07 12:44:00;;;;;;;;;;;10.50;99.90;;;;;;5073003;28;19927;-73
2021/11/07 12:49:14;;;;;;;;;;;10.50;99.90;;;;;;5072379;28;19919;-74
2021/11/07 12:51:48;;;;;;;;;;;10.60;99.90;;;;;;5073124;28;20015;-75
2021/11/07 12:54:17;;;;;;;;;;;10.80;99.90;;;;;;5072608;28;19995;-74
2021/11/07 12:56:48;;;;;;;;;;;10.80;99.90;;;;;;5073503;28;19912;-74
2021/11/07 12:59:22;;;;;;;;;;;10.80;99.90;;;;;;5073368;28;19916;-73
2021/11/07 13:02:11;;;;;;;;;;;10.60;99.90;;;;;;5072230;28;19928;-73
2021/11/07 13:04:47;;;;;;;;;;;10.50;99.90;;;;;;5070006;28;19917;-74
2021/11/07 13:07:32;;;;;;;;;;;10.50;99.90;;;;;;5091023;28;19925;-73
2021/11/07 13:10:01;;;;;;;;;;;10.40;99.90;;;;;;5073585;28;20314;-74
2021/11/07 13:12:35;;;;;;;;;;;10.40;99.90;;;;;;5071847;28;20618;-73
2021/11/07 13:18:13;;;;;;;;;;;10.50;99.90;;;;;;5028678;28;19991;-73
2021/11/07 13:20:51;;;;;;;;;;;10.60;99.90;;;;;;5028938;28;19935;-74
2021/11/07 13:28:57;;;;;;;;;;;10.60;99.90;;;;;;5028849;28;19921;-73
2021/11/07 13:33:42;;;;;;;;;;;10.40;99.90;;;;;;5029502;28;19956;-73
2021/11/07 13:36:08;;;;;;;;;;;10.30;99.90;;;;;;5029216;28;20385;-75
2021/11/07 13:38:44;;;;;;;;;;;10.20;99.90;;;;;;5030019;28;19959;-74
2021/11/07 13:41:23;;;;;;;;;;;10.20;99.90;;;;;;5029938;28;19921;-74
2021/11/07 13:43:57;;;;;;;;;;;10.20;99.90;;;;;;5030428;28;19920;-74
2021/11/07 13:46:23;;;;;;;;;;;10.10;99.90;;;;;;5029233;28;20683;-74
2021/11/07 13:49:04;;;;;;;;;;;10.10;99.90;;;;;;5021620;28;19952;-74
2021/11/07 13:51:30;;;;;;;;;;;10.10;99.90;;;;;;5029907;28;19917;-74
2021/11/07 13:54:00;;;;;;;;;;;10.10;99.90;;;;;;5042206;28;20249;-75
2021/11/07 13:56:27;;;;;;;;;;;10.10;99.90;;;;;;5071596;28;19912;-74
2021/11/07 13:58:53;;;;;;;;;;;10.10;99.90;;;;;;5071302;28;19932;-74
2021/11/07 14:01:18;;;;;;;;;;;10.10;99.90;;;;;;5073891;28;19912;-73
2021/11/07 14:03:44;;;;;;;;;;;10.10;99.90;;;;;;5071026;28;19916;-72
2021/11/07 14:06:13;;;;;;;;;;;10.00;99.90;;;;;;5074845;28;19927;-71
2021/11/07 14:08:47;;;;;;;;;;;9.90;99.90;;;;;;5076282;28;19916;-72
2021/11/07 14:11:13;;;;;;;;;;;9.80;99.90;;;;;;5088500;28;19959;-73
2021/11/07 14:13:41;;;;;;;;;;;9.60;99.90;;;;;;5073708;28;19912;-74
2021/11/07 14:16:07;;;;;;;;;;;9.40;99.90;;;;;;5062305;28;19982;-72
2021/11/07 14:18:39;;;;;;;;;;;9.40;99.90;;;;;;5073611;28;20014;-72
2021/11/07 14:21:05;;;;;;;;;;;9.30;99.90;;;;;;5075815;28;20565;-72
2021/11/07 14:23:57;;;;;;;;;;;9.30;99.90;;;;;;5073338;28;19916;-73
2021/11/07 14:26:32;;;;;;;;;;;9.30;99.90;;;;;;5078793;28;19936;-73
2021/11/07 14:29:21;;;;;;;;;;;9.30;99.90;;;;;;5083726;28;19920;-73
2021/11/07 14:32:11;;;;;;;;;;;9.20;99.90;;;;;;5072533;28;19920;-73
2021/11/07 14:34:44;;;;;;;;;;;9.20;99.90;;;;;;5075505;28;20011;-73
2021/11/07 14:40:03;;;;;;;;;;;9.20;99.90;;;;;;5078036;28;19965;-73
2021/11/07 14:45:24;;;;;;;;;;;9.20;99.90;;;;;;5076330;28;20291;-74
2021/11/07 14:53:44;;;;;;;;;;;9.30;99.90;;;;;;5075001;28;20368;-74
2021/11/07 14:56:18;;;;;;;;;;;9.40;99.90;;;;;;5074625;28;19943;-73
2021/11/07 15:04:10;;;;;;;;;;;9.40;99.90;;;;;;5075291;28;19935;-73
2021/11/07 15:06:43;;;;;;;;;;;9.40;99.90;;;;;;5078132;28;20328;-72
2021/11/07 15:09:23;;;;;;;;;;;9.50;99.90;;;;;;5074606;28;19951;-73
2021/11/07 15:17:16;;;;;;;;;;;9.50;99.90;;;;;;5074022;28;19931;-73
2021/11/07 15:20:00;;;;;;;;;;;9.50;99.90;;;;;;5077296;28;19969;-73
2021/11/07 15:22:39;;;;;;;;;;;9.40;99.90;;;;;;5075840;28;19969;-73
2021/11/07 15:25:06;;;;;;;;;;;9.30;99.90;;;;;;5075053;28;19920;-73
2021/11/07 15:27:33;;;;;;;;;;;9.30;99.90;;;;;;5077452;28;20012;-73
2021/11/07 15:30:00;;;;;;;;;;;9.20;99.90;;;;;;5073622;28;19921;-74
2021/11/07 15:32:28;;;;;;;;;;;9.10;99.90;;;;;;5072959;28;19912;-73
2021/11/07 15:34:53;;;;;;;;;;;9.10;99.90;;;;;;5073116;28;19946;-74
2021/11/07 15:37:34;;;;;;;;;;;9.00;99.90;;;;;;5072016;28;20366;-75
2021/11/07 15:40:01;;;;;;;;;;;9.00;99.90;;;;;;5074418;28;19912;-74
2021/11/07 15:42:28;;;;;;;;;;;8.90;99.90;;;;;;5074675;28;20005;-73
2021/11/07 15:44:58;;;;;;;;;;;8.90;99.90;;;;;;5071221;28;20224;-73
2021/11/07 15:47:29;;;;;;;;;;;8.90;99.90;;;;;;5071933;28;19959;-74
2021/11/07 15:52:51;;;;;;;;;;;9.00;99.90;;;;;;5076758;28;20514;-74
2021/11/07 15:55:27;;;;;;;;;;;9.10;99.90;;;;;;5073591;28;19927;-73
2021/11/07 16:16:43;;;;;;;;;;;9.10;99.90;;;;;;5073670;28;19920;-76
2021/11/07 16:18:49;;;;;;;;;;;9.00;99.90;;;;;;5071049;28;19942;-75
2021/11/07 16:21:18;;;;;;;;;;;8.80;99.90;;;;;;5074477;28;19916;-74
2021/11/07 16:23:44;;;;;;;;;;;8.80;99.90;;;;;;5073724;28;19916;-74
2021/11/07 16:26:14;;;;;;;;;;;8.70;99.90;;;;;;5075069;28;19912;-74
2021/11/07 16:28:41;;;;;;;;;;;8.50;99.90;;;;;;5086904;28;19912;-74
2021/11/07 16:31:10;;;;;;;;;;;8.40;99.90;;;;;;5081752;28;19912;-74
2021/11/07 16:33:51;;;;;;;;;;;8.30;99.90;;;;;;5069904;28;19916;-74
2021/11/07 16:36:23;;;;;;;;;;;8.30;99.90;;;;;;5072930;28;20015;-73
2021/11/07 16:38:54;;;;;;;;;;;8.30;99.90;;;;;;5075222;28;19932;-74
2021/11/07 16:43:53;;;;;;;;;;;8.20;99.90;;;;;;5060356;28;20254;-73
2021/11/07 16:46:21;;;;;;;;;;;8.20;99.90;;;;;;5075641;28;19913;-73
2021/11/07 16:48:48;;;;;;;;;;;8.20;99.90;;;;;;5066472;28;19913;-74
2021/11/07 16:51:22;;;;;;;;;;;8.20;99.90;;;;;;5075611;28;19923;-74
2021/11/07 16:53:56;;;;;;;;;;;8.20;99.90;;;;;;5069314;28;20235;-74
2021/11/07 16:56:25;;;;;;;;;;;8.30;99.90;;;;;;5076936;28;19916;-73
2021/11/07 16:58:58;;;;;;;;;;;8.30;99.90;;;;;;5076926;28;19924;-73
2021/11/07 17:01:35;;;;;;;;;;;8.20;99.90;;;;;;5073522;28;20259;-74
2021/11/07 17:11:43;;;;;;;;;;;8.20;99.90;;;;;;5080994;28;19912;-73
2021/11/07 17:14:12;;;;;;;;;;;8.20;99.90;;;;;;5071901;28;19916;-73
2021/11/07 17:17:13;;;;;;;;;;;8.20;99.90;;;;;;5073481;28;19918;-73
2021/11/07 17:24:48;;;;;;;;;;;8.30;99.90;;;;;;5088332;28;20018;-73
2021/11/07 17:27:16;;;;;;;;;;;8.30;99.90;;;;;;5076711;28;20314;-72
2021/11/07 17:29:53;;;;;;;;;;;8.30;99.90;;;;;;5065714;28;20051;-72
2021/11/07 17:32:30;;;;;;;;;;;8.30;99.90;;;;;;5068613;28;20192;-72
2021/11/07 17:35:01;;;;;;;;;;;8.30;99.90;;;;;;5073360;28;19917;-72
2021/11/07 17:37:35;;;;;;;;;;;8.30;99.90;;;;;;5065422;28;19920;-75
2021/11/07 17:40:25;;;;;;;;;;;8.20;99.90;;;;;;5069641;28;19932;-72
2021/11/07 17:56:19;;;;;;;;;;;7.80;99.90;;;;;;5072222;28;19976;-73
2021/11/07 17:58:45;;;;;;;;;;;7.70;99.90;;;;;;5072383;28;20007;-77
2021/11/07 18:01:13;;;;;;;;;;;7.70;99.90;;;;;;5075372;28;20011;-74
2021/11/07 18:03:40;;;;;;;;;;;7.70;99.90;;;;;;5069749;28;19916;-73
2021/11/07 18:06:08;;;;;;;;;;;7.70;99.90;;;;;;5076268;28;19923;-81
2021/11/07 18:08:39;;;;;;;;;;;7.70;99.90;;;;;;5077377;28;19912;-73